Time;durP1;ratioP1;P1;durP2;ratioP2;P2;SDS_P1;SDS_P2;PMS_P1;PMS_P2;Temp;Humidity;BMP_temperature;BMP_pressure;BME280_temperature;BME280_humidity;BME280_pressure;Samples;Min_cycle;Max_cycle;Signal;HPM_P1;HPM_P2
2021/08/24 00:00:32;;;;;;;3.45;2.77;;;;;;;14.71;100.00;100179.58;1750491;80;21042;-83
2021/08/24 00:03:01;;;;;;;4.37;2.90;;;;;;;14.69;100.00;100178.03;1750607;81;21014;-81
2021/08/24 00:05:36;;;;;;;3.00;2.70;;;;;;;14.67;100.00;100179.98;1758256;81;21037;-82
2021/08/24 00:08:05;;;;;;;3.27;2.72;;;;;;;14.64;100.00;100173.16;1749323;80;20990;-82
2021/08/24 00:10:37;;;;;;;4.20;3.40;;;;;;;14.63;100.00;100182.08;1751292;81;20985;-81
2021/08/24 00:13:05;;;;;;;4.90;3.58;;;;;;;14.61;100.00;100181.86;1752826;81;21041;-81
2021/08/24 00:15:31;;;;;;;4.10;3.22;;;;;;;14.58;100.00;100180.81;1744263;81;21022;-80
2021/08/24 00:17:59;;;;;;;3.75;3.02;;;;;;;14.54;100.00;100178.47;1748451;81;21005;-83
2021/08/24 00:20:30;;;;;;;4.12;3.05;;;;;;;14.53;100.00;100185.23;1745943;80;20986;-82
2021/08/24 00:22:54;;;;;;;3.37;2.98;;;;;;;14.49;100.00;100178.01;1748055;81;22247;-81
2021/08/24 00:25:19;;;;;;;4.28;3.52;;;;;;;14.47;100.00;100181.28;1748367;81;20986;-80
2021/08/24 00:27:45;;;;;;;4.42;2.98;;;;;;;14.45;100.00;100171.31;1745457;81;20986;-80
2021/08/24 00:30:12;;;;;;;3.50;3.05;;;;;;;14.44;100.00;100177.58;1747882;82;20970;-81
2021/08/24 00:32:37;;;;;;;4.55;3.05;;;;;;;14.42;100.00;100176.89;1748179;82;20954;-83
2021/08/24 00:35:05;;;;;;;3.98;2.92;;;;;;;14.41;100.00;100181.00;1748621;81;21013;-82
2021/08/24 00:37:31;;;;;;;6.12;2.85;;;;;;;14.40;100.00;100181.49;1748225;82;21481;-82
2021/08/24 00:39:57;;;;;;;4.42;2.58;;;;;;;14.39;100.00;100177.17;1748566;82;20979;-82
2021/08/24 00:42:23;;;;;;;4.65;3.22;;;;;;;14.39;100.00;100177.66;1746978;82;20946;-82
2021/08/24 00:44:49;;;;;;;3.52;2.95;;;;;;;14.39;100.00;100177.17;1748468;81;21012;-81
2021/08/24 00:47:22;;;;;;;3.05;2.75;;;;;;;14.38;100.00;100179.48;1748118;82;21004;-82
2021/08/24 00:49:49;;;;;;;5.25;3.27;;;;;;;14.37;100.00;100178.28;1748808;81;20994;-82
2021/08/24 00:52:21;;;;;;;4.12;3.17;;;;;;;14.36;100.00;100177.45;1748175;81;21032;-81
2021/08/24 00:54:48;;;;;;;3.95;3.02;;;;;;;14.36;100.00;100176.13;1745189;81;21032;-83
2021/08/24 00:57:21;;;;;;;3.22;2.90;;;;;;;14.37;100.00;100178.28;1743131;82;20990;-83
2021/08/24 00:59:50;;;;;;;3.83;3.08;;;;;;;14.37;100.00;100176.95;1743429;81;20994;-82
2021/08/24 01:02:18;;;;;;;5.42;3.15;;;;;;;14.36;100.00;100172.63;1746515;82;20970;-83
2021/08/24 01:04:47;;;;;;;4.40;3.47;;;;;;;14.38;100.00;100177.30;1748024;82;21463;-81
2021/08/24 01:07:36;;;;;;;3.83;3.37;;;;;;;14.38;100.00;100186.13;1746840;81;20982;-82
2021/08/24 01:10:13;;;;;;;3.92;3.12;;;;;;;14.39;100.00;100184.30;1745424;82;21010;-82
2021/08/24 01:13:19;;;;;;;4.05;3.65;;;;;;;14.40;100.00;100189.95;1743205;81;21058;-83
2021/08/24 01:16:08;;;;;;;4.78;3.72;;;;;;;14.41;100.00;100191.62;1748307;81;21049;-82
2021/08/24 01:18:57;;;;;;;4.65;3.95;;;;;;;14.40;100.00;100193.44;1698993;84;21091;-82
2021/08/24 01:21:48;;;;;;;5.10;4.60;;;;;;;14.41;100.00;100195.14;1708053;84;20999;-82
2021/08/24 01:24:57;;;;;;;5.85;4.37;;;;;;;14.42;100.00;100195.97;1729028;82;21065;-83
2021/08/24 01:27:33;;;;;;;7.25;4.62;;;;;;;14.40;100.00;100193.44;1748257;81;21053;-83
2021/08/24 01:30:27;;;;;;;6.10;4.08;;;;;;;14.40;100.00;100195.26;1718591;83;21548;-84
2021/08/24 01:32:58;;;;;;;5.35;4.62;;;;;;;14.38;100.00;100199.39;1728221;82;21445;-83
2021/08/24 01:36:06;;;;;;;4.95;4.45;;;;;;;14.39;100.00;100194.92;1741547;82;21001;-83
2021/08/24 01:38:43;;;;;;;5.55;4.55;;;;;;;14.38;100.00;100204.70;1741883;82;20982;-86
2021/08/24 01:41:18;;;;;;;7.45;4.78;;;;;;;14.39;100.00;100207.70;1742189;82;21531;-84
2021/08/24 01:44:05;;;;;;;6.55;4.85;;;;;;;14.39;100.00;100211.68;1727243;82;21527;-85
2021/08/24 01:47:04;;;;;;;5.80;5.20;;;;;;;14.39;100.00;100209.52;1741327;82;21033;-84
2021/08/24 01:49:38;;;;;;;6.20;5.50;;;;;;;14.39;100.00;100213.50;1730232;81;21088;-83
2021/08/24 01:52:12;;;;;;;7.58;5.78;;;;;;;14.39;100.00;100216.16;1741487;82;21355;-84
2021/08/24 01:54:49;;;;;;;5.83;4.90;;;;;;;14.39;100.00;100208.19;1748486;81;20986;-84
2021/08/24 01:57:29;;;;;;;7.20;5.90;;;;;;;14.39;100.00;100220.97;1748173;81;21037;-85
2021/08/24 02:00:07;;;;;;;6.10;5.20;;;;;;;14.39;100.00;100216.98;1722237;82;21020;-84
2021/08/24 02:02:40;;;;;;;8.50;5.60;;;;;;;14.40;100.00;100220.48;1745491;82;20942;-84
2021/08/24 02:05:15;;;;;;;5.92;4.80;;;;;;;14.39;100.00;100215.66;1742041;82;21539;-85
2021/08/24 02:07:43;;;;;;;6.67;6.08;;;;;;;13.97;100.00;100150.88;1746702;82;20987;-84
2021/08/24 02:10:16;;;;;;;7.15;5.30;;;;;;;14.41;100.00;100231.44;1747841;81;20998;-84
2021/08/24 02:12:47;;;;;;;9.05;5.70;;;;;;;14.41;100.00;100232.77;1745382;81;20969;-84
2021/08/24 02:15:16;;;;;;;7.40;6.10;;;;;;;14.41;100.00;100236.28;1742169;82;21037;-85
2021/08/24 02:17:44;;;;;;;6.42;5.22;;;;;;;14.41;100.00;100234.95;1722449;82;21039;-85
2021/08/24 02:20:22;;;;;;;7.50;6.17;;;;;;;14.42;100.00;100234.46;1748617;82;21014;-83
2021/08/24 02:22:53;;;;;;;5.87;5.33;;;;;;;14.43;100.00;100234.80;1744599;82;21568;-84
2021/08/24 02:25:23;;;;;;;6.45;5.62;;;;;;;14.43;100.00;100239.62;1748438;81;21006;-85
2021/08/24 02:28:16;;;;;;;8.43;5.87;;;;;;;14.43;100.00;100243.60;1744822;82;21001;-86
2021/08/24 02:30:56;;;;;;;7.92;5.35;;;;;;;14.44;100.00;100245.27;1742335;82;21500;-84
2021/08/24 02:33:25;;;;;;;6.78;5.53;;;;;;;14.43;100.00;100236.97;1743188;82;21433;-85
2021/08/24 02:35:58;;;;;;;6.97;6.28;;;;;;;14.43;100.00;100244.09;1748376;82;21021;-85
2021/08/24 02:38:28;;;;;;;5.95;5.37;;;;;;;14.42;100.00;100244.59;1744108;81;21460;-84
2021/08/24 02:41:20;;;;;;;7.05;6.35;;;;;;;14.42;100.00;100247.24;1741860;82;21299;-82
2021/08/24 02:44:00;;;;;;;4.70;4.28;;;;;;;14.41;100.00;100258.84;1747332;82;20997;-84
2021/08/24 02:46:33;;;;;;;6.65;3.87;;;;;;;14.40;100.00;100266.44;1748172;81;20998;-84
2021/08/24 02:49:11;;;;;;;4.65;4.00;;;;;;;14.38;100.00;100268.41;1748353;82;20982;-81
2021/08/24 02:51:37;;;;;;;4.37;3.75;;;;;;;14.38;100.00;100279.03;1745943;81;21033;-83
2021/08/24 02:54:24;;;;;;;5.28;3.40;;;;;;;14.37;100.00;100278.66;1741924;82;21480;-83
2021/08/24 02:56:50;;;;;;;6.00;3.02;;;;;;;14.36;100.00;100274.83;1741995;82;21025;-84
2021/08/24 02:59:16;;;;;;;3.72;3.08;;;;;;;14.37;100.00;100277.33;1747322;81;21008;-84
2021/08/24 03:01:42;;;;;;;3.80;3.15;;;;;;;14.36;100.00;100278.31;1742162;82;20978;-84
2021/08/24 03:04:10;;;;;;;3.85;3.45;;;;;;;14.37;100.00;100285.30;1742224;82;20978;-84
2021/08/24 03:06:42;;;;;;;4.15;3.25;;;;;;;14.37;100.00;100283.97;1743911;82;20982;-84
2021/08/24 03:09:11;;;;;;;3.90;3.33;;;;;;;14.37;100.00;100295.91;1759638;81;20963;-84
2021/08/24 03:11:50;;;;;;;3.83;2.90;;;;;;;14.37;100.00;100298.56;1776797;80;21433;-83
2021/08/24 03:14:46;;;;;;;6.53;3.62;;;;;;;14.37;100.00;100302.55;1766348;80;21046;-83
2021/08/24 03:17:40;;;;;;;3.30;2.80;;;;;;;14.38;100.00;100298.07;1745124;82;21620;-83
2021/08/24 03:20:09;;;;;;;3.08;2.58;;;;;;;14.39;100.00;100298.45;1748427;81;21046;-82
2021/08/24 03:22:38;;;;;;;4.83;3.30;;;;;;;14.39;100.00;100297.95;1747910;82;21017;-83
2021/08/24 03:25:06;;;;;;;4.33;3.92;;;;;;;14.38;100.00;100308.69;1746045;81;20997;-82
2021/08/24 03:27:40;;;;;;;4.95;4.37;;;;;;;14.38;100.00;100313.53;1741872;82;21012;-83
2021/08/24 03:30:11;;;;;;;5.78;3.80;;;;;;;14.38;100.00;100308.69;1742121;82;20989;-83
2021/08/24 03:32:37;;;;;;;5.83;4.83;;;;;;;14.37;100.00;100311.84;1741990;82;21543;-84
2021/08/24 03:35:05;;;;;;;5.53;4.85;;;;;;;14.35;100.00;100311.16;1744189;82;20947;-84
2021/08/24 03:37:31;;;;;;;6.47;5.65;;;;;;;14.34;100.00;100312.59;1748209;82;21500;-83
2021/08/24 03:39:57;;;;;;;8.08;5.25;;;;;;;14.33;100.00;100318.40;1748319;81;20950;-83
2021/08/24 03:42:23;;;;;;;6.00;5.22;;;;;;;14.33;100.00;100318.89;1748019;82;21420;-82
2021/08/24 03:44:48;;;;;;;6.35;5.08;;;;;;;14.30;100.00;100320.00;1743410;82;21021;-82
2021/08/24 03:47:15;;;;;;;6.62;5.37;;;;;;;14.29;100.00;100327.61;1748172;81;21020;-84
2021/08/24 03:49:42;;;;;;;6.37;5.47;;;;;;;14.27;100.00;100326.41;1748430;82;21511;-82
2021/08/24 03:52:09;;;;;;;7.62;6.15;;;;;;;14.26;100.00;100334.52;1747925;81;21516;-83
2021/08/24 03:54:35;;;;;;;6.60;5.83;;;;;;;14.23;100.00;100328.98;1748318;82;21040;-83
2021/08/24 03:57:01;;;;;;;6.60;5.03;;;;;;;14.22;100.00;100331.79;1748061;81;20986;-83
2021/08/24 03:59:27;;;;;;;7.30;5.30;;;;;;;14.20;100.00;100339.03;1748332;82;21421;-83
2021/08/24 04:01:53;;;;;;;8.38;5.35;;;;;;;14.17;100.00;100340.62;1746337;81;21077;-83
2021/08/24 04:04:19;;;;;;;8.30;5.72;;;;;;;14.16;100.00;100342.45;1748319;82;20958;-81
2021/08/24 04:06:45;;;;;;;6.47;5.37;;;;;;;14.15;100.00;100349.20;1748057;81;20989;-81
2021/08/24 04:09:11;;;;;;;5.80;5.22;;;;;;;14.11;100.00;100345.97;1748246;81;20981;-82
2021/08/24 04:11:38;;;;;;;8.33;5.83;;;;;;;14.11;100.00;100346.46;1743934;81;21005;-83
2021/08/24 04:14:04;;;;;;;8.48;6.03;;;;;;;14.09;100.00;100357.23;1747704;81;21033;-82
2021/08/24 04:16:30;;;;;;;7.97;5.92;;;;;;;14.07;100.00;100358.67;1747201;81;21461;-81
2021/08/24 04:18:56;;;;;;;8.13;6.65;;;;;;;14.06;100.00;100367.61;1747963;81;20981;-80
2021/08/24 04:21:22;;;;;;;7.65;6.92;;;;;;;14.04;100.00;100365.56;1744771;82;21049;-82
2021/08/24 04:23:49;;;;;;;7.05;5.87;;;;;;;14.04;100.00;100379.33;1744368;82;21015;-81
2021/08/24 04:26:17;;;;;;;6.90;5.87;;;;;;;14.03;100.00;100377.65;1743922;82;21029;-82
2021/08/24 04:28:44;;;;;;;7.67;6.17;;;;;;;14.02;100.00;100383.45;1741957;82;20981;-82
2021/08/24 04:31:16;;;;;;;6.72;6.08;;;;;;;14.02;100.00;100388.75;1743767;81;20986;-81
2021/08/24 04:33:42;;;;;;;;;;;;;;;14.01;100.00;100389.70;1751034;81;21499;-82
2021/08/24 04:36:10;;;;;;;7.15;6.37;;;;;;;14.00;100.00;100401.30;1748423;82;20120;-82
2021/08/24 04:38:36;;;;;;;7.22;6.33;;;;;;;14.00;100.00;100410.58;1747409;81;21021;-82
2021/08/24 04:41:03;;;;;;;9.45;6.40;;;;;;;13.98;100.00;100409.86;1742089;82;21074;-82
2021/08/24 04:43:29;;;;;;;8.35;5.95;;;;;;;13.97;100.00;100413.50;1742557;82;20982;-81
2021/08/24 04:45:55;;;;;;;7.33;5.50;;;;;;;13.97;100.00;100413.98;1743593;82;20954;-83
2021/08/24 04:48:21;;;;;;;6.87;5.90;;;;;;;13.95;100.00;100418.57;1748262;82;20997;-82
2021/08/24 04:50:47;;;;;;;8.15;5.85;;;;;;;13.96;100.00;100430.89;1748591;81;21477;-82
2021/08/24 04:53:13;;;;;;;7.37;5.78;;;;;;;13.96;100.00;100430.89;1748430;82;20955;-83
2021/08/24 04:55:41;;;;;;;10.18;6.65;;;;;;;13.95;100.00;100433.16;1748352;81;21021;-83
2021/08/24 04:58:07;;;;;;;7.78;6.30;;;;;;;13.95;100.00;100437.14;1748346;81;21054;-84
2021/08/24 05:00:35;;;;;;;7.83;6.75;;;;;;;13.95;100.00;100439.80;1746864;81;20996;-83
2021/08/24 05:03:01;;;;;;;6.65;5.55;;;;;;;13.96;100.00;100446.80;1741985;82;21013;-83
2021/08/24 05:05:27;;;;;;;7.33;6.35;;;;;;;13.95;100.00;100451.27;1742445;82;21048;-82
2021/08/24 05:07:54;;;;;;;6.60;5.80;;;;;;;13.94;100.00;100448.24;1748069;82;20984;-83
2021/08/24 05:10:21;;;;;;;6.97;6.30;;;;;;;13.94;100.00;100452.72;1748421;82;21061;-83
2021/08/24 05:12:47;;;;;;;8.25;6.10;;;;;;;13.93;100.00;100449.22;1748266;81;21448;-82
2021/08/24 05:15:13;;;;;;;8.18;6.45;;;;;;;13.94;100.00;100452.72;1748534;82;21006;-84
2021/08/24 05:17:40;;;;;;;8.05;5.42;;;;;;;13.93;100.00;100454.53;1748220;81;21002;-83
2021/08/24 05:20:07;;;;;;;12.03;7.25;;;;;;;13.93;100.00;100455.86;1743002;81;20985;-82
2021/08/24 05:22:34;;;;;;;6.78;6.05;;;;;;;13.94;100.00;100468.14;1739057;82;21005;-83
2021/08/24 05:25:00;;;;;;;8.38;6.20;;;;;;;13.95;100.00;100466.32;1742359;82;21547;-83
2021/08/24 05:27:26;;;;;;;6.87;6.17;;;;;;;13.93;100.00;100465.62;1748253;82;21001;-82
2021/08/24 05:29:52;;;;;;;7.75;6.37;;;;;;;13.94;100.00;100472.61;1748442;82;20986;-83
2021/08/24 05:32:18;;;;;;;8.90;6.35;;;;;;;13.93;100.00;100477.08;1748233;81;20970;-84
2021/08/24 05:34:44;;;;;;;7.75;6.17;;;;;;;13.94;100.00;100473.94;1748575;82;21592;-84
2021/08/24 05:37:10;;;;;;;7.95;5.72;;;;;;;13.94;100.00;100486.70;1748169;81;21037;-83
2021/08/24 05:39:37;;;;;;;8.75;6.35;;;;;;;13.93;100.00;100491.67;1748935;81;21449;-84
2021/08/24 05:42:04;;;;;;;6.95;5.65;;;;;;;13.95;100.00;100498.16;1741876;82;20997;-83
2021/08/24 05:44:30;;;;;;;6.80;6.03;;;;;;;13.94;100.00;100492.02;1748090;82;21004;-85
2021/08/24 05:46:56;;;;;;;6.75;5.58;;;;;;;13.94;100.00;100503.95;1748383;81;21576;-84
2021/08/24 05:49:22;;;;;;;7.28;6.47;;;;;;;13.94;100.00;100505.77;1748512;81;20978;-84
2021/08/24 05:51:48;;;;;;;6.45;5.45;;;;;;;13.95;100.00;100511.42;1745817;82;20978;-83
2021/08/24 05:54:14;;;;;;;6.53;5.45;;;;;;;13.94;100.00;100505.28;1742284;82;21571;-84
2021/08/24 05:56:43;;;;;;;7.40;5.20;;;;;;;13.95;100.00;100514.94;1753888;81;20930;-84
2021/08/24 05:59:09;;;;;;;7.25;6.25;;;;;;;13.95;100.00;100514.94;1746664;82;20994;-84
2021/08/24 06:01:35;;;;;;;5.78;4.78;;;;;;;13.96;100.00;100521.09;1746604;82;20977;-84
2021/08/24 06:04:02;;;;;;;8.00;5.83;;;;;;;13.95;100.00;100529.53;1746735;82;20994;-84
2021/08/24 06:06:36;;;;;;;6.15;5.22;;;;;;;13.96;100.00;100540.98;1747639;82;21468;-83
2021/08/24 06:09:09;;;;;;;7.47;6.03;;;;;;;13.94;100.00;100539.77;1744567;81;20985;-83
2021/08/24 06:11:40;;;;;;;7.08;5.45;;;;;;;13.93;100.00;100542.07;1742107;82;21049;-85
2021/08/24 06:14:07;;;;;;;8.08;5.95;;;;;;;13.94;100.00;100547.72;1744296;82;21484;-84
2021/08/24 06:16:35;;;;;;;6.28;5.62;;;;;;;13.95;100.00;100548.11;1744920;82;21461;-84
2021/08/24 06:19:01;;;;;;;6.40;5.67;;;;;;;13.96;100.00;100558.22;1742985;81;21464;-84
2021/08/24 06:21:28;;;;;;;7.55;6.00;;;;;;;13.96;100.00;100557.73;1741541;82;20990;-84
2021/08/24 06:23:54;;;;;;;6.60;5.67;;;;;;;13.91;100.00;100547.98;1741374;82;21021;-86
2021/08/24 06:26:20;;;;;;;6.53;5.45;;;;;;;13.99;100.00;100563.28;1745907;82;21468;-83
2021/08/24 06:28:47;;;;;;;7.95;5.75;;;;;;;14.00;100.00;100568.44;1741981;82;20997;-84
2021/08/24 06:31:18;;;;;;;6.53;5.80;;;;;;;14.00;100.00;100568.93;1746225;82;21009;-82
2021/08/24 06:33:45;;;;;;;9.48;6.05;;;;;;;14.00;100.00;100575.08;1744304;81;21072;-83
2021/08/24 06:36:12;;;;;;;8.48;6.15;;;;;;;14.01;100.00;100579.41;1723779;82;21009;-83
2021/08/24 06:38:38;;;;;;;8.23;5.58;;;;;;;14.02;100.00;100581.11;1747776;82;20994;-82
2021/08/24 06:41:06;;;;;;;7.22;6.53;;;;;;;14.04;100.00;100587.59;1736767;82;20970;-84
2021/08/24 06:43:32;;;;;;;5.92;5.20;;;;;;;14.04;100.00;100591.09;1747409;82;21017;-82
2021/08/24 06:45:58;;;;;;;6.97;6.28;;;;;;;14.05;100.00;100598.59;1747821;81;21028;-83
2021/08/24 06:48:24;;;;;;;7.15;6.45;;;;;;;14.07;100.00;100599.28;1747498;81;21013;-84
2021/08/24 06:50:51;;;;;;;7.45;5.42;;;;;;;14.08;100.00;100605.81;1744844;82;20973;-83
2021/08/24 06:53:18;;;;;;;7.25;6.03;;;;;;;14.08;100.00;100603.61;1741055;82;21006;-85
2021/08/24 06:56:17;;;;;;;5.72;5.20;;;;;;;14.10;100.00;100606.16;1742160;82;21042;-86
2021/08/24 06:58:30;;;;;;;6.10;5.50;;;;;;;14.08;100.00;100610.25;1739551;81;20971;-87
2021/08/24 07:00:56;;;;;;;8.25;6.37;;;;;;;14.06;100.00;100609.06;1743671;81;21536;-87
2021/08/24 07:03:22;;;;;;;6.60;6.00;;;;;;;14.08;100.00;100610.25;1741282;82;21037;-85
2021/08/24 07:05:51;;;;;;;6.85;6.17;;;;;;;14.10;100.00;100618.09;1744107;82;21010;-87
2021/08/24 07:08:18;;;;;;;7.42;6.70;;;;;;;14.10;100.00;100616.77;1741977;81;21037;-87
2021/08/24 07:10:47;;;;;;;9.40;6.22;;;;;;;14.11;100.00;100621.94;1741266;82;21032;-86
2021/08/24 07:13:13;;;;;;;7.58;6.78;;;;;;;14.13;100.00;100624.48;1747267;82;20994;-87
2021/08/24 07:15:40;;;;;;;7.00;6.28;;;;;;;14.13;100.00;100619.17;1747681;81;20985;-84
2021/08/24 07:18:07;;;;;;;7.03;6.15;;;;;;;14.16;100.00;100625.06;1725280;82;21025;-87
2021/08/24 07:20:33;;;;;;;6.83;5.90;;;;;;;14.18;100.00;100626.25;1746417;82;20938;-86
2021/08/24 07:23:01;;;;;;;7.55;6.75;;;;;;;14.19;100.00;100633.27;1746680;82;21005;-87
2021/08/24 07:25:30;;;;;;;5.83;5.03;;;;;;;14.18;100.00;100639.06;1740860;82;20997;-85
2021/08/24 07:27:56;;;;;;;6.37;5.78;;;;;;;14.17;100.00;100640.02;1744631;82;21002;-84
2021/08/24 07:30:23;;;;;;;11.93;6.15;;;;;;;14.18;100.00;100647.03;1747916;81;21472;-85
2021/08/24 07:32:49;;;;;;;5.50;5.00;;;;;;;14.18;100.00;100647.03;1747664;81;21037;-86
2021/08/24 07:35:17;;;;;;;8.15;5.17;;;;;;;14.18;100.00;100650.14;1743985;81;21007;-86
2021/08/24 07:37:43;;;;;;;6.30;5.08;;;;;;;14.17;100.00;100653.77;1741196;82;20981;-86
2021/08/24 07:40:11;;;;;;;8.33;5.47;;;;;;;14.15;100.00;100658.34;1743235;81;21480;-84
2021/08/24 07:42:38;;;;;;;6.67;4.90;;;;;;;14.14;100.00;100663.31;1741676;82;21523;-84
2021/08/24 07:45:05;;;;;;;7.05;4.83;;;;;;;14.10;100.00;100661.88;1742201;82;20950;-85
2021/08/24 07:47:31;;;;;;;6.53;3.85;;;;;;;14.06;100.00;100665.27;1749346;80;20982;-83
2021/08/24 07:49:57;;;;;;;4.55;4.12;;;;;;;14.00;100.00;100668.42;1750561;81;22268;-83
2021/08/24 07:52:23;;;;;;;5.97;4.37;;;;;;;13.97;100.00;100676.63;1769470;81;20970;-83
2021/08/24 07:54:49;;;;;;;5.87;4.10;;;;;;;13.93;100.00;100670.73;1767209;80;21481;-83
2021/08/24 07:57:15;;;;;;;5.55;3.27;;;;;;;13.90;100.00;100676.28;1746212;81;20962;-83
2021/08/24 07:59:40;;;;;;;5.75;3.30;;;;;;;13.87;100.00;100685.81;1747853;82;20963;-84
2021/08/24 08:02:12;;;;;;;6.00;4.25;;;;;;;13.84;100.00;100682.08;1747975;82;21085;-84
2021/08/24 08:04:38;;;;;;;6.05;3.75;;;;;;;13.83;100.00;100688.36;1748389;81;21529;-85
2021/08/24 08:07:04;;;;;;;6.25;3.22;;;;;;;13.81;100.00;100687.14;1748269;82;21006;-85
2021/08/24 08:09:30;;;;;;;5.75;3.10;;;;;;;13.82;100.00;100687.53;1748516;82;21465;-85
2021/08/24 08:11:56;;;;;;;4.95;3.20;;;;;;;13.84;100.00;100690.04;1748159;81;21029;-84
2021/08/24 08:14:22;;;;;;;5.90;3.70;;;;;;;13.86;100.00;100696.56;1748231;82;21587;-84
2021/08/24 08:16:48;;;;;;;7.15;4.83;;;;;;;13.74;100.00;100682.47;1748225;82;21005;-86
2021/08/24 08:19:14;;;;;;;7.20;3.47;;;;;;;13.88;100.00;100708.71;1748560;81;20993;-81
2021/08/24 08:21:41;;;;;;;5.90;3.50;;;;;;;13.88;100.00;100712.69;1748437;82;21512;-89
2021/08/24 08:24:07;;;;;;;4.40;3.50;;;;;;;13.88;100.00;100713.18;1748309;81;21018;-88
2021/08/24 08:26:34;;;;;;;4.40;3.27;;;;;;;13.89;100.00;100721.03;1758852;81;20984;-87
2021/08/24 08:29:05;;;;;;;5.92;4.22;;;;;;;13.90;100.00;100717.41;1761438;81;20963;-87
2021/08/24 08:31:29;;;;;;;6.50;3.83;;;;;;;13.91;100.00;100720.41;1758753;80;21394;-88
2021/08/24 08:33:55;;;;;;;5.45;4.00;;;;;;;13.93;100.00;100725.12;1762170;81;21025;-87
2021/08/24 08:36:21;;;;;;;6.40;4.50;;;;;;;13.95;100.00;100723.20;1759026;81;21527;-87
2021/08/24 08:38:47;;;;;;;7.33;5.08;;;;;;;13.98;100.00;100724.25;1762652;81;21052;-89
2021/08/24 08:41:43;;;;;;;6.53;4.70;;;;;;;14.00;100.00;100721.00;1754861;81;21450;-86
2021/08/24 08:44:37;;;;;;;7.72;4.83;;;;;;;14.05;100.00;100724.63;1762086;80;21021;-87
2021/08/24 08:47:43;;;;;;;7.28;4.67;;;;;;;14.09;100.00;100731.36;1750070;81;21005;-88
2021/08/24 08:50:20;;;;;;;6.80;4.95;;;;;;;14.11;100.00;100728.57;1764188;81;21017;-88
2021/08/24 08:53:12;;;;;;;6.22;4.67;;;;;;;14.11;100.00;100737.86;1761620;81;21029;-88
2021/08/24 08:56:01;;;;;;;7.37;4.60;;;;;;;14.14;100.00;100744.25;1765680;81;21056;-84
2021/08/24 08:58:57;;;;;;;6.10;4.78;;;;;;;14.14;100.00;100751.72;1759130;81;20970;-86
2021/08/24 09:01:59;;;;;;;6.28;4.83;;;;;;;14.21;100.00;100748.08;1763524;81;21006;-86
2021/08/24 09:04:38;;;;;;;6.63;5.10;;;;;;;14.22;100.00;100752.45;1741498;81;21087;-87
2021/08/24 09:07:05;;;;;;;7.62;4.87;;;;;;;14.22;100.00;100755.10;1771384;80;21332;-87
2021/08/24 09:09:33;;;;;;;7.65;5.50;;;;;;;14.23;100.00;100758.11;1773661;80;21468;-88
2021/08/24 09:12:01;;;;;;;7.00;6.30;;;;;;;14.24;100.00;100757.12;1773955;81;21033;-85
2021/08/24 09:14:47;;;;;;;7.12;4.83;;;;;;;14.25;100.00;100761.49;1774170;81;21345;-86
2021/08/24 09:17:31;;;;;;;5.70;4.80;;;;;;;14.26;100.00;100774.62;1774166;80;20989;-87
2021/08/24 09:20:08;;;;;;;6.65;4.90;;;;;;;14.26;100.00;100775.11;1774432;80;20978;-87
2021/08/24 09:22:35;;;;;;;5.20;3.72;;;;;;;14.23;100.00;100777.52;1773845;81;21583;-88
2021/08/24 09:25:07;;;;;;;6.17;4.37;;;;;;;14.20;100.00;100775.11;1773517;81;21475;-87
2021/08/24 09:27:59;;;;;;;9.43;4.70;;;;;;;14.16;100.00;100778.16;1774061;81;21516;-86
2021/08/24 09:30:25;;;;;;;5.00;3.73;;;;;;;14.12;100.00;100776.23;1774505;81;21573;-88
2021/08/24 09:32:58;;;;;;;6.75;3.92;;;;;;;14.12;100.00;100778.88;1774319;80;20978;-89
2021/08/24 09:35:30;;;;;;;7.25;4.58;;;;;;;14.12;100.00;100780.70;1773835;80;21037;-87
2021/08/24 09:38:00;;;;;;;6.80;3.98;;;;;;;14.13;100.00;100785.03;1774289;81;20985;-87
2021/08/24 09:40:49;;;;;;;8.00;5.10;;;;;;;14.15;100.00;100780.42;1773857;81;21550;-86
2021/08/24 09:43:32;;;;;;;5.92;4.25;;;;;;;14.14;100.00;100775.60;1759593;81;21449;-86
2021/08/24 09:46:12;;;;;;;6.95;4.80;;;;;;;14.19;100.00;100775.25;1761375;81;21494;-86
2021/08/24 09:49:07;;;;;;;6.33;4.60;;;;;;;14.27;100.00;100774.97;1728242;81;20981;-88
2021/08/24 09:51:44;;;;;;;7.72;4.42;;;;;;;14.43;100.00;100785.20;1741654;82;21076;-87
2021/08/24 09:54:36;;;;;;;5.55;3.95;;;;;;;14.54;100.00;100783.02;1744074;82;21491;-87
2021/08/24 09:57:14;;;;;;;4.70;3.40;;;;;;;14.63;100.00;100790.23;1744145;81;20985;-86
2021/08/24 09:59:57;;;;;;;6.95;4.22;;;;;;;14.72;100.00;100799.27;1751390;81;20974;-89
2021/08/24 10:02:52;;;;;;;8.23;3.80;;;;;;;14.76;100.00;100795.38;1758896;81;21035;-88
2021/08/24 10:05:27;;;;;;;7.10;3.35;;;;;;;14.79;100.00;100793.80;1760135;81;21530;-88
2021/08/24 10:07:58;;;;;;;9.13;3.83;;;;;;;14.74;100.00;100796.84;1762538;81;20985;-86
2021/08/24 10:10:37;;;;;;;5.72;3.75;;;;;;;14.73;100.00;100792.98;1766862;81;21044;-88
2021/08/24 10:13:35;;;;;;;5.45;2.77;;;;;;;14.71;100.00;100802.41;1752048;81;21456;-88
2021/08/24 10:16:10;;;;;;;6.72;3.42;;;;;;;14.72;100.00;100801.92;1748397;82;21090;-88
2021/08/24 10:18:37;;;;;;;6.50;3.92;;;;;;;14.73;100.00;100810.24;1748593;81;21005;-89
2021/08/24 10:21:09;;;;;;;4.80;2.67;;;;;;;14.74;100.00;100807.48;1748585;81;21022;-90
2021/08/24 10:23:55;;;;;;;6.30;3.05;;;;;;;14.77;100.00;100807.69;1745845;80;21551;-88
2021/08/24 10:26:28;;;;;;;9.20;2.95;;;;;;;14.80;100.00;100809.25;1751901;80;21026;-88
2021/08/24 10:28:59;;;;;;;4.28;2.47;;;;;;;14.81;100.00;100798.97;1759711;81;20942;-89
2021/08/24 10:31:45;;;;;;;6.35;2.87;;;;;;;14.84;100.00;100802.25;1745867;81;21310;-88
2021/08/24 10:34:33;;;;;;;5.70;2.90;;;;;;;14.88;100.00;100800.17;1746027;81;21512;-87
2021/08/24 10:37:40;;;;;;;6.00;2.65;;;;;;;14.91;100.00;100803.42;1745974;82;21006;-89
2021/08/24 10:40:15;;;;;;;6.58;3.27;;;;;;;14.92;100.00;100802.44;1739384;82;20977;-87
2021/08/24 10:43:03;;;;;;;4.83;2.77;;;;;;;14.96;100.00;100806.52;1742183;82;20997;-87
2021/08/24 10:45:39;;;;;;;7.97;2.98;;;;;;;15.01;100.00;100803.50;1745626;81;21021;-87
2021/08/24 10:48:16;;;;;;;3.98;2.10;;;;;;;15.10;100.00;100807.17;1744043;82;21033;-87
2021/08/24 10:51:07;;;;;;;4.62;2.25;;;;;;;15.16;100.00;100812.81;1742579;82;21460;-88
2021/08/24 10:53:42;;;;;;;4.67;2.80;;;;;;;15.22;100.00;100819.44;1740978;81;21015;-86
2021/08/24 10:56:50;;;;;;;4.37;2.00;;;;;;;15.29;100.00;100817.11;1748036;81;21026;-86
2021/08/24 10:59:25;;;;;;;5.62;3.10;;;;;;;15.34;100.00;100814.42;1744222;81;21009;-87
2021/08/24 11:02:25;;;;;;;4.60;2.60;;;;;;;15.43;100.00;100824.29;1754764;80;21605;-86
2021/08/24 11:05:08;;;;;;;6.50;2.90;;;;;;;15.51;100.00;100818.30;1749783;80;20998;-87
2021/08/24 11:07:52;;;;;;;4.30;2.40;;;;;;;15.60;100.00;100820.67;1745270;82;20998;-87
2021/08/24 11:10:44;;;;;;;9.55;2.70;;;;;;;15.66;100.00;100821.45;1728141;81;21282;-82
2021/08/24 11:13:28;;;;;;;5.37;2.67;;;;;;;15.73;100.00;100829.31;1747865;81;20985;-87
2021/08/24 11:16:00;;;;;;;3.95;2.15;;;;;;;15.75;100.00;100822.52;1748066;81;21532;-87
2021/08/24 11:18:51;;;;;;;6.30;2.22;;;;;;;15.74;100.00;100828.83;1744965;81;20989;-86
2021/08/24 11:21:45;;;;;;;3.37;2.40;;;;;;;15.78;100.00;100836.89;1745543;81;20978;-89
2021/08/24 11:24:35;;;;;;;5.78;2.30;;;;;;;15.82;100.00;100835.14;1761823;81;21049;-87
2021/08/24 11:27:18;;;;;;;4.10;2.30;;;;;;;15.90;100.00;100837.16;1703045;83;21014;-89
2021/08/24 11:29:48;;;;;;;4.90;2.70;;;;;;;15.90;100.00;100839.33;1735748;80;21479;-86
2021/08/24 11:32:25;;;;;;;4.30;2.30;;;;;;;15.93;100.00;100836.90;1768421;81;20997;-87
2021/08/24 11:35:08;;;;;;;5.95;2.65;;;;;;;15.93;100.00;100841.73;1759839;81;20985;-85
2021/08/24 11:37:40;;;;;;;5.75;2.25;;;;;;;15.94;100.00;100844.73;1750852;81;21005;-88
2021/08/24 11:40:11;;;;;;;3.52;2.10;;;;;;;15.94;100.00;100843.41;1762655;81;20977;-82
2021/08/24 11:42:47;;;;;;;4.37;1.98;;;;;;;15.92;99.42;100845.34;1783549;80;21078;-84